sensor_id;sensor_type;location;lat;lon;timestamp;temperature;humidity
6443;DHT22;3254;47.372;8.512;2023-04-08T00:01:02;4.40;1.00
6443;DHT22;3254;47.372;8.512;2023-04-08T00:03:28;4.30;1.00
6443;DHT22;3254;47.372;8.512;2023-04-08T00:05:53;4.30;1.00
6443;DHT22;3254;47.372;8.512;2023-04-08T00:08:19;4.30;1.00
6443;DHT22;3254;47.372;8.512;2023-04-08T00:10:44;4.30;1.50
6443;DHT22;3254;47.372;8.512;2023-04-08T00:13:10;4.40;1.80
6443;DHT22;3254;47.372;8.512;2023-04-08T00:15:36;4.30;2.80
6443;DHT22;3254;47.372;8.512;2023-04-08T00:18:02;4.40;4.00
6443;DHT22;3254;47.372;8.512;2023-04-08T00:20:27;4.40;4.30
6443;DHT22;3254;47.372;8.512;2023-04-08T00:22:53;4.30;3.90
6443;DHT22;3254;47.372;8.512;2023-04-08T00:25:19;4.20;4.00
6443;DHT22;3254;47.372;8.512;2023-04-08T00:27:44;4.20;6.40
6443;DHT22;3254;47.372;8.512;2023-04-08T00:30:10;4.20;7.90
6443;DHT22;3254;47.372;8.512;2023-04-08T00:32:36;4.20;9.60
6443;DHT22;3254;47.372;8.512;2023-04-08T00:35:02;4.10;10.30
6443;DHT22;3254;47.372;8.512;2023-04-08T00:37:29;4.10;13.20
6443;DHT22;3254;47.372;8.512;2023-04-08T00:39:56;4.10;14.90
6443;DHT22;3254;47.372;8.512;2023-04-08T00:42:22;4.10;16.70
6443;DHT22;3254;47.372;8.512;2023-04-08T00:44:48;4.10;17.30
6443;DHT22;3254;47.372;8.512;2023-04-08T00:47:15;4.10;17.50
6443;DHT22;3254;47.372;8.512;2023-04-08T00:49:42;4.10;18.50
6443;DHT22;3254;47.372;8.512;2023-04-08T00:52:08;4.10;20.10
6443;DHT22;3254;47.372;8.512;2023-04-08T00:54:35;4.20;17.40
6443;DHT22;3254;47.372;8.512;2023-04-08T00:57:01;4.20;16.80
6443;DHT22;3254;47.372;8.512;2023-04-08T00:59:28;4.10;16.30
6443;DHT22;3254;47.372;8.512;2023-04-08T01:02:03;4.20;18.70
6443;DHT22;3254;47.372;8.512;2023-04-08T01:04:52;4.20;19.10
6443;DHT22;3254;47.372;8.512;2023-04-08T01:07:30;4.30;17.20
6443;DHT22;3254;47.372;8.512;2023-04-08T01:10:05;4.40;16.60
6443;DHT22;3254;47.372;8.512;2023-04-08T01:12:37;4.40;15.30
6443;DHT22;3254;47.372;8.512;2023-04-08T01:15:07;4.40;14.10
6443;DHT22;3254;47.372;8.512;2023-04-08T01:17:33;4.40;13.50
6443;DHT22;3254;47.372;8.512;2023-04-08T01:20:01;4.40;13.80
6443;DHT22;3254;47.372;8.512;2023-04-08T01:25:30;4.50;12.10
6443;DHT22;3254;47.372;8.512;2023-04-08T01:27:59;4.50;12.40
6443;DHT22;3254;47.372;8.512;2023-04-08T01:30:25;4.60;11.20
6443;DHT22;3254;47.372;8.512;2023-04-08T01:32:53;4.60;8.30
6443;DHT22;3254;47.372;8.512;2023-04-08T01:35:21;4.70;6.90
6443;DHT22;3254;47.372;8.512;2023-04-08T01:37:50;4.70;5.90
6443;DHT22;3254;47.372;8.512;2023-04-08T01:40:18;4.70;4.20
6443;DHT22;3254;47.372;8.512;2023-04-08T01:42:51;4.70;3.70
6443;DHT22;3254;47.372;8.512;2023-04-08T01:45:18;4.70;3.20
6443;DHT22;3254;47.372;8.512;2023-04-08T01:47:45;4.90;2.50
6443;DHT22;3254;47.372;8.512;2023-04-08T01:50:13;5.00;1.00
6443;DHT22;3254;47.372;8.512;2023-04-08T01:52:40;5.00;1.00
6443;DHT22;3254;47.372;8.512;2023-04-08T01:55:07;5.10;1.00
6443;DHT22;3254;47.372;8.512;2023-04-08T01:57:36;5.10;1.00
6443;DHT22;3254;47.372;8.512;2023-04-08T02:00:06;5.10;1.00
6443;DHT22;3254;47.372;8.512;2023-04-08T02:02:35;5.10;1.00
6443;DHT22;3254;47.372;8.512;2023-04-08T02:05:03;5.10;1.00
6443;DHT22;3254;47.372;8.512;2023-04-08T02:07:28;5.10;1.00
6443;DHT22;3254;47.372;8.512;2023-04-08T02:09:55;5.10;1.00
6443;DHT22;3254;47.372;8.512;2023-04-08T02:12:21;5.00;1.00
6443;DHT22;3254;47.372;8.512;2023-04-08T02:14:47;5.00;1.00
6443;DHT22;3254;47.372;8.512;2023-04-08T02:20:14;4.90;1.00
6443;DHT22;3254;47.372;8.512;2023-04-08T02:23:02;4.80;1.00
6443;DHT22;3254;47.372;8.512;2023-04-08T02:25:34;4.70;1.00
6443;DHT22;3254;47.372;8.512;2023-04-08T02:28:03;4.80;1.00
6443;DHT22;3254;47.372;8.512;2023-04-08T02:30:34;4.70;1.00
6443;DHT22;3254;47.372;8.512;2023-04-08T02:33:00;4.80;1.00
6443;DHT22;3254;47.372;8.512;2023-04-08T02:35:28;4.90;1.00
6443;DHT22;3254;47.372;8.512;2023-04-08T02:37:54;4.90;1.00
6443;DHT22;3254;47.372;8.512;2023-04-08T02:40:31;5.00;1.00
6443;DHT22;3254;47.372;8.512;2023-04-08T02:42:57;5.10;1.00
6443;DHT22;3254;47.372;8.512;2023-04-08T02:45:30;5.10;1.00
6443;DHT22;3254;47.372;8.512;2023-04-08T02:47:56;5.10;1.00
6443;DHT22;3254;47.372;8.512;2023-04-08T02:50:23;5.00;1.00
6443;DHT22;3254;47.372;8.512;2023-04-08T02:52:49;5.00;1.00
6443;DHT22;3254;47.372;8.512;2023-04-08T02:55:14;5.00;1.00
6443;DHT22;3254;47.372;8.512;2023-04-08T02:57:41;5.00;1.00
6443;DHT22;3254;47.372;8.512;2023-04-08T03:00:07;4.90;1.00
6443;DHT22;3254;47.372;8.512;2023-04-08T03:02:33;4.90;1.00
6443;DHT22;3254;47.372;8.512;2023-04-08T03:04:58;5.00;1.00
6443;DHT22;3254;47.372;8.512;2023-04-08T03:07:24;5.00;1.00
6443;DHT22;3254;47.372;8.512;2023-04-08T03:09:50;5.00;1.00
6443;DHT22;3254;47.372;8.512;2023-04-08T03:12:17;5.00;1.00
6443;DHT22;3254;47.372;8.512;2023-04-08T03:14:44;5.10;1.00
6443;DHT22;3254;47.372;8.512;2023-04-08T03:17:10;5.10;1.00
6443;DHT22;3254;47.372;8.512;2023-04-08T03:19:35;5.10;1.00
6443;DHT22;3254;47.372;8.512;2023-04-08T03:22:01;5.10;1.00
6443;DHT22;3254;47.372;8.512;2023-04-08T03:24:26;5.10;1.00
6443;DHT22;3254;47.372;8.512;2023-04-08T03:26:52;5.10;1.00
6443;DHT22;3254;47.372;8.512;2023-04-08T03:29:17;5.10;1.00
6443;DHT22;3254;47.372;8.512;2023-04-08T03:31:43;5.00;1.00
6443;DHT22;3254;47.372;8.512;2023-04-08T03:34:09;5.00;1.00
6443;DHT22;3254;47.372;8.512;2023-04-08T03:36:34;5.00;1.00
6443;DHT22;3254;47.372;8.512;2023-04-08T03:39:00;5.10;1.00
6443;DHT22;3254;47.372;8.512;2023-04-08T03:41:28;5.10;1.00
6443;DHT22;3254;47.372;8.512;2023-04-08T03:43:53;5.00;1.00
6443;DHT22;3254;47.372;8.512;2023-04-08T03:46:19;5.00;1.00
6443;DHT22;3254;47.372;8.512;2023-04-08T03:48:44;4.90;1.00
6443;DHT22;3254;47.372;8.512;2023-04-08T03:51:10;5.00;1.00
6443;DHT22;3254;47.372;8.512;2023-04-08T03:53:35;4.90;1.00
6443;DHT22;3254;47.372;8.512;2023-04-08T03:56:02;5.00;1.00
6443;DHT22;3254;47.372;8.512;2023-04-08T03:58:29;5.00;1.00
6443;DHT22;3254;47.372;8.512;2023-04-08T04:00:54;5.00;1.00
6443;DHT22;3254;47.372;8.512;2023-04-08T04:03:20;5.00;1.00
6443;DHT22;3254;47.372;8.512;2023-04-08T04:05:46;4.90;1.00
6443;DHT22;3254;47.372;8.512;2023-04-08T04:08:11;4.80;1.00
6443;DHT22;3254;47.372;8.512;2023-04-08T04:10:37;4.70;1.00
6443;DHT22;3254;47.372;8.512;2023-04-08T04:13:02;4.70;1.00
6443;DHT22;3254;47.372;8.512;2023-04-08T04:15:28;4.80;1.00
6443;DHT22;3254;47.372;8.512;2023-04-08T04:17:53;4.80;1.00
6443;DHT22;3254;47.372;8.512;2023-04-08T04:20:19;4.80;1.00
6443;DHT22;3254;47.372;8.512;2023-04-08T04:22:46;4.90;1.00
6443;DHT22;3254;47.372;8.512;2023-04-08T04:25:11;4.90;1.00
6443;DHT22;3254;47.372;8.512;2023-04-08T04:27:37;4.90;1.00
6443;DHT22;3254;47.372;8.512;2023-04-08T04:30:04;4.90;1.00
6443;DHT22;3254;47.372;8.512;2023-04-08T04:32:30;4.90;1.00
6443;DHT22;3254;47.372;8.512;2023-04-08T04:34:55;4.90;1.00
6443;DHT22;3254;47.372;8.512;2023-04-08T04:37:21;4.90;3.20
6443;DHT22;3254;47.372;8.512;2023-04-08T04:39:46;4.80;7.50
6443;DHT22;3254;47.372;8.512;2023-04-08T04:42:12;4.80;14.60
6443;DHT22;3254;47.372;8.512;2023-04-08T04:44:39;4.80;17.20
6443;DHT22;3254;47.372;8.512;2023-04-08T04:47:04;4.80;18.10
6443;DHT22;3254;47.372;8.512;2023-04-08T04:49:30;4.70;19.70
6443;DHT22;3254;47.372;8.512;2023-04-08T04:51:57;4.70;23.20
6443;DHT22;3254;47.372;8.512;2023-04-08T04:54:23;4.70;26.20
6443;DHT22;3254;47.372;8.512;2023-04-08T04:56:48;4.70;27.30
6443;DHT22;3254;47.372;8.512;2023-04-08T04:59:14;4.70;28.70
6443;DHT22;3254;47.372;8.512;2023-04-08T05:01:40;4.70;27.10
6443;DHT22;3254;47.372;8.512;2023-04-08T05:04:06;4.70;28.60
6443;DHT22;3254;47.372;8.512;2023-04-08T05:06:33;4.80;31.60
6443;DHT22;3254;47.372;8.512;2023-04-08T05:09:00;4.80;31.90
6443;DHT22;3254;47.372;8.512;2023-04-08T05:11:25;4.80;32.10
6443;DHT22;3254;47.372;8.512;2023-04-08T05:13:51;4.80;31.50
6443;DHT22;3254;47.372;8.512;2023-04-08T05:16:18;4.80;30.00
6443;DHT22;3254;47.372;8.512;2023-04-08T05:18:43;4.80;29.20
6443;DHT22;3254;47.372;8.512;2023-04-08T05:21:09;4.80;29.50
6443;DHT22;3254;47.372;8.512;2023-04-08T05:23:35;4.80;31.10
6443;DHT22;3254;47.372;8.512;2023-04-08T05:26:00;4.90;30.50
6443;DHT22;3254;47.372;8.512;2023-04-08T05:28:26;4.90;30.30
6443;DHT22;3254;47.372;8.512;2023-04-08T05:30:52;4.90;26.30
6443;DHT22;3254;47.372;8.512;2023-04-08T05:33:18;4.90;26.90
6443;DHT22;3254;47.372;8.512;2023-04-08T05:35:45;5.00;28.30
6443;DHT22;3254;47.372;8.512;2023-04-08T05:38:11;5.10;27.10
6443;DHT22;3254;47.372;8.512;2023-04-08T05:40:36;5.00;25.20
6443;DHT22;3254;47.372;8.512;2023-04-08T05:43:02;5.10;26.40
6443;DHT22;3254;47.372;8.512;2023-04-08T05:45:28;5.10;24.40
6443;DHT22;3254;47.372;8.512;2023-04-08T05:47:54;5.20;27.60
6443;DHT22;3254;47.372;8.512;2023-04-08T05:50:19;5.30;25.20
6443;DHT22;3254;47.372;8.512;2023-04-08T05:52:46;5.30;23.50
6443;DHT22;3254;47.372;8.512;2023-04-08T05:55:13;5.40;22.10
6443;DHT22;3254;47.372;8.512;2023-04-08T05:57:39;5.30;20.40
6443;DHT22;3254;47.372;8.512;2023-04-08T06:00:07;5.40;20.30
6443;DHT22;3254;47.372;8.512;2023-04-08T06:02:34;5.50;18.80
6443;DHT22;3254;47.372;8.512;2023-04-08T06:04:59;5.40;16.50
6443;DHT22;3254;47.372;8.512;2023-04-08T06:07:25;5.50;16.90
6443;DHT22;3254;47.372;8.512;2023-04-08T06:09:51;5.60;16.40
6443;DHT22;3254;47.372;8.512;2023-04-08T06:12:16;5.70;16.00
6443;DHT22;3254;47.372;8.512;2023-04-08T06:14:42;5.70;12.70
6443;DHT22;3254;47.372;8.512;2023-04-08T06:17:07;5.70;11.60
6443;DHT22;3254;47.372;8.512;2023-04-08T06:19:33;5.80;9.10
6443;DHT22;3254;47.372;8.512;2023-04-08T06:21:59;5.80;7.70
6443;DHT22;3254;47.372;8.512;2023-04-08T06:24:26;6.00;7.50
6443;DHT22;3254;47.372;8.512;2023-04-08T06:26:52;6.10;3.90
6443;DHT22;3254;47.372;8.512;2023-04-08T06:29:19;6.30;2.80
6443;DHT22;3254;47.372;8.512;2023-04-08T06:31:46;6.50;1.70
6443;DHT22;3254;47.372;8.512;2023-04-08T06:34:15;6.80;1.00
6443;DHT22;3254;47.372;8.512;2023-04-08T06:36:40;6.90;1.00
6443;DHT22;3254;47.372;8.512;2023-04-08T06:39:06;7.20;1.00
6443;DHT22;3254;47.372;8.512;2023-04-08T06:41:32;7.30;1.00
6443;DHT22;3254;47.372;8.512;2023-04-08T06:43:58;7.30;1.00
6443;DHT22;3254;47.372;8.512;2023-04-08T06:46:25;7.30;1.00
6443;DHT22;3254;47.372;8.512;2023-04-08T06:48:50;7.30;1.00
6443;DHT22;3254;47.372;8.512;2023-04-08T06:51:16;7.30;1.00
6443;DHT22;3254;47.372;8.512;2023-04-08T06:53:42;7.20;1.00
6443;DHT22;3254;47.372;8.512;2023-04-08T06:56:07;7.20;1.00
6443;DHT22;3254;47.372;8.512;2023-04-08T06:58:34;7.20;1.00
6443;DHT22;3254;47.372;8.512;2023-04-08T07:01:00;7.30;1.00
6443;DHT22;3254;47.372;8.512;2023-04-08T07:03:27;7.30;1.00
6443;DHT22;3254;47.372;8.512;2023-04-08T07:05:53;7.50;1.00
6443;DHT22;3254;47.372;8.512;2023-04-08T07:08:20;7.60;1.00
6443;DHT22;3254;47.372;8.512;2023-04-08T07:10:45;7.70;1.00
6443;DHT22;3254;47.372;8.512;2023-04-08T07:13:11;7.60;1.00
6443;DHT22;3254;47.372;8.512;2023-04-08T07:15:36;7.70;1.00
6443;DHT22;3254;47.372;8.512;2023-04-08T07:18:02;7.80;1.00
6443;DHT22;3254;47.372;8.512;2023-04-08T07:20:29;7.90;1.00
6443;DHT22;3254;47.372;8.512;2023-04-08T07:22:54;7.90;1.00
6443;DHT22;3254;47.372;8.512;2023-04-08T07:25:21;8.00;1.00
6443;DHT22;3254;47.372;8.512;2023-04-08T07:27:47;8.00;1.00
6443;DHT22;3254;47.372;8.512;2023-04-08T07:30:13;7.90;1.00
6443;DHT22;3254;47.372;8.512;2023-04-08T07:32:38;8.10;1.00
6443;DHT22;3254;47.372;8.512;2023-04-08T07:35:04;8.00;1.00
6443;DHT22;3254;47.372;8.512;2023-04-08T07:37:30;8.30;1.00
6443;DHT22;3254;47.372;8.512;2023-04-08T07:39:55;8.50;1.00
6443;DHT22;3254;47.372;8.512;2023-04-08T07:42:21;8.80;1.00
6443;DHT22;3254;47.372;8.512;2023-04-08T07:44:46;9.10;1.00
6443;DHT22;3254;47.372;8.512;2023-04-08T07:47:12;9.40;1.00
6443;DHT22;3254;47.372;8.512;2023-04-08T07:49:38;9.40;1.00
6443;DHT22;3254;47.372;8.512;2023-04-08T07:52:04;9.30;1.00
6443;DHT22;3254;47.372;8.512;2023-04-08T07:54:31;9.30;1.00
6443;DHT22;3254;47.372;8.512;2023-04-08T07:56:59;9.70;1.00
6443;DHT22;3254;47.372;8.512;2023-04-08T07:59:24;9.80;1.00
6443;DHT22;3254;47.372;8.512;2023-04-08T08:01:50;10.00;1.00
6443;DHT22;3254;47.372;8.512;2023-04-08T08:04:16;10.10;1.00
6443;DHT22;3254;47.372;8.512;2023-04-08T08:06:42;10.30;1.00
6443;DHT22;3254;47.372;8.512;2023-04-08T08:09:07;10.50;1.00
6443;DHT22;3254;47.372;8.512;2023-04-08T08:11:33;10.60;1.00
6443;DHT22;3254;47.372;8.512;2023-04-08T08:13:59;10.60;1.00
6443;DHT22;3254;47.372;8.512;2023-04-08T08:16:27;10.70;1.00
6443;DHT22;3254;47.372;8.512;2023-04-08T08:18:53;10.80;1.00
6443;DHT22;3254;47.372;8.512;2023-04-08T08:21:18;10.90;1.00
6443;DHT22;3254;47.372;8.512;2023-04-08T08:23:44;11.00;1.00
6443;DHT22;3254;47.372;8.512;2023-04-08T08:26:12;11.30;1.00
6443;DHT22;3254;47.372;8.512;2023-04-08T08:28:39;12.10;1.00
6443;DHT22;3254;47.372;8.512;2023-04-08T08:31:05;12.60;1.00
6443;DHT22;3254;47.372;8.512;2023-04-08T08:33:34;12.60;1.00
6443;DHT22;3254;47.372;8.512;2023-04-08T08:36:00;12.90;1.00
6443;DHT22;3254;47.372;8.512;2023-04-08T08:38:26;13.00;1.00
6443;DHT22;3254;47.372;8.512;2023-04-08T08:40:57;14.00;1.00
6443;DHT22;3254;47.372;8.512;2023-04-08T08:43:23;15.10;1.00
6443;DHT22;3254;47.372;8.512;2023-04-08T08:45:49;15.20;1.00
6443;DHT22;3254;47.372;8.512;2023-04-08T08:48:15;15.40;1.00
6443;DHT22;3254;47.372;8.512;2023-04-08T08:50:42;15.30;1.00
6443;DHT22;3254;47.372;8.512;2023-04-08T08:53:07;15.00;1.00
6443;DHT22;3254;47.372;8.512;2023-04-08T08:55:34;14.90;1.00
6443;DHT22;3254;47.372;8.512;2023-04-08T08:58:01;15.10;1.00
6443;DHT22;3254;47.372;8.512;2023-04-08T09:00:31;15.50;1.00
6443;DHT22;3254;47.372;8.512;2023-04-08T09:03:18;15.40;1.00
6443;DHT22;3254;47.372;8.512;2023-04-08T09:05:49;15.70;1.00
6443;DHT22;3254;47.372;8.512;2023-04-08T09:10:55;16.80;1.00
6443;DHT22;3254;47.372;8.512;2023-04-08T09:13:24;17.10;1.00
6443;DHT22;3254;47.372;8.512;2023-04-08T09:16:04;17.00;1.00
6443;DHT22;3254;47.372;8.512;2023-04-08T09:18:31;16.70;1.00
6443;DHT22;3254;47.372;8.512;2023-04-08T09:21:01;17.20;1.00
6443;DHT22;3254;47.372;8.512;2023-04-08T09:23:41;17.10;1.00
6443;DHT22;3254;47.372;8.512;2023-04-08T09:26:13;16.90;1.00
6443;DHT22;3254;47.372;8.512;2023-04-08T09:28:40;16.40;1.00
6443;DHT22;3254;47.372;8.512;2023-04-08T09:31:26;16.30;1.00
6443;DHT22;3254;47.372;8.512;2023-04-08T09:33:54;17.30;1.00
6443;DHT22;3254;47.372;8.512;2023-04-08T09:36:21;18.10;1.00
6443;DHT22;3254;47.372;8.512;2023-04-08T09:38:47;17.80;1.00
6443;DHT22;3254;47.372;8.512;2023-04-08T09:41:16;17.30;1.00
6443;DHT22;3254;47.372;8.512;2023-04-08T09:43:53;16.90;1.00
6443;DHT22;3254;47.372;8.512;2023-04-08T09:46:26;16.20;1.00
6443;DHT22;3254;47.372;8.512;2023-04-08T09:49:17;16.10;1.00
6443;DHT22;3254;47.372;8.512;2023-04-08T09:52:07;17.30;1.00
6443;DHT22;3254;47.372;8.512;2023-04-08T09:54:46;17.50;1.00
6443;DHT22;3254;47.372;8.512;2023-04-08T10:00:15;16.50;1.00
6443;DHT22;3254;47.372;8.512;2023-04-08T10:05:18;15.90;1.00
6443;DHT22;3254;47.372;8.512;2023-04-08T10:07:49;15.30;1.00
6443;DHT22;3254;47.372;8.512;2023-04-08T10:10:15;15.10;1.00
6443;DHT22;3254;47.372;8.512;2023-04-08T10:12:41;15.00;1.00
6443;DHT22;3254;47.372;8.512;2023-04-08T10:15:30;15.20;1.00
6443;DHT22;3254;47.372;8.512;2023-04-08T10:23:04;16.10;1.00
6443;DHT22;3254;47.372;8.512;2023-04-08T10:25:38;16.50;1.00
6443;DHT22;3254;47.372;8.512;2023-04-08T10:30:48;16.10;1.00
6443;DHT22;3254;47.372;8.512;2023-04-08T10:36:11;15.70;1.00
6443;DHT22;3254;47.372;8.512;2023-04-08T10:38:41;15.40;1.00
6443;DHT22;3254;47.372;8.512;2023-04-08T10:41:09;15.40;1.00
6443;DHT22;3254;47.372;8.512;2023-04-08T10:43:35;14.90;1.00
6443;DHT22;3254;47.372;8.512;2023-04-08T10:46:03;15.20;1.00
6443;DHT22;3254;47.372;8.512;2023-04-08T10:48:29;15.70;1.00
6443;DHT22;3254;47.372;8.512;2023-04-08T10:50:59;15.50;1.00
6443;DHT22;3254;47.372;8.512;2023-04-08T10:53:33;16.20;1.00
6443;DHT22;3254;47.372;8.512;2023-04-08T10:56:07;17.30;1.00
6443;DHT22;3254;47.372;8.512;2023-04-08T10:58:34;20.00;1.00
6443;DHT22;3254;47.372;8.512;2023-04-08T11:01:07;21.30;1.00
6443;DHT22;3254;47.372;8.512;2023-04-08T11:03:33;20.80;1.00
6443;DHT22;3254;47.372;8.512;2023-04-08T11:06:01;20.00;1.00
6443;DHT22;3254;47.372;8.512;2023-04-08T11:08:28;19.10;1.00
6443;DHT22;3254;47.372;8.512;2023-04-08T11:10:54;18.60;1.00
6443;DHT22;3254;47.372;8.512;2023-04-08T11:13:22;18.70;1.00
6443;DHT22;3254;47.372;8.512;2023-04-08T11:15:57;18.70;1.00
6443;DHT22;3254;47.372;8.512;2023-04-08T11:18:23;18.90;1.00
6443;DHT22;3254;47.372;8.512;2023-04-08T11:20:50;18.70;1.00
6443;DHT22;3254;47.372;8.512;2023-04-08T11:23:17;18.60;1.00
6443;DHT22;3254;47.372;8.512;2023-04-08T11:25:44;18.80;1.00
6443;DHT22;3254;47.372;8.512;2023-04-08T11:28:11;19.10;1.00
6443;DHT22;3254;47.372;8.512;2023-04-08T11:30:38;19.00;1.00
6443;DHT22;3254;47.372;8.512;2023-04-08T11:33:06;18.30;1.00
6443;DHT22;3254;47.372;8.512;2023-04-08T11:35:33;18.00;1.00
6443;DHT22;3254;47.372;8.512;2023-04-08T11:38:03;17.80;1.00
6443;DHT22;3254;47.372;8.512;2023-04-08T11:40:30;17.50;1.00
6443;DHT22;3254;47.372;8.512;2023-04-08T11:42:56;17.30;1.00
6443;DHT22;3254;47.372;8.512;2023-04-08T11:45:21;17.30;1.00
6443;DHT22;3254;47.372;8.512;2023-04-08T11:47:48;17.40;1.00
6443;DHT22;3254;47.372;8.512;2023-04-08T11:50:25;17.30;1.00
6443;DHT22;3254;47.372;8.512;2023-04-08T11:52:54;17.20;1.00
6443;DHT22;3254;47.372;8.512;2023-04-08T11:55:27;16.70;1.00
6443;DHT22;3254;47.372;8.512;2023-04-08T11:57:54;16.60;1.00
6443;DHT22;3254;47.372;8.512;2023-04-08T12:00:21;16.80;1.00
6443;DHT22;3254;47.372;8.512;2023-04-08T12:02:47;16.80;1.00
6443;DHT22;3254;47.372;8.512;2023-04-08T12:05:16;17.00;1.00
6443;DHT22;3254;47.372;8.512;2023-04-08T12:07:43;16.80;1.00
6443;DHT22;3254;47.372;8.512;2023-04-08T12:10:09;16.90;1.00
6443;DHT22;3254;47.372;8.512;2023-04-08T12:12:36;16.40;1.00
6443;DHT22;3254;47.372;8.512;2023-04-08T12:15:01;16.30;1.00
6443;DHT22;3254;47.372;8.512;2023-04-08T12:17:28;16.40;1.00
6443;DHT22;3254;47.372;8.512;2023-04-08T12:19:54;15.90;1.00
6443;DHT22;3254;47.372;8.512;2023-04-08T12:22:20;15.40;1.00
6443;DHT22;3254;47.372;8.512;2023-04-08T12:24:46;15.10;1.00
6443;DHT22;3254;47.372;8.512;2023-04-08T12:27:12;14.80;1.00
6443;DHT22;3254;47.372;8.512;2023-04-08T12:29:37;14.80;1.00
6443;DHT22;3254;47.372;8.512;2023-04-08T12:32:03;14.50;1.00
6443;DHT22;3254;47.372;8.512;2023-04-08T12:34:31;14.50;1.00
6443;DHT22;3254;47.372;8.512;2023-04-08T12:36:58;14.80;1.00
6443;DHT22;3254;47.372;8.512;2023-04-08T12:39:25;14.80;1.00
6443;DHT22;3254;47.372;8.512;2023-04-08T12:41:50;15.00;1.00
6443;DHT22;3254;47.372;8.512;2023-04-08T12:44:16;15.00;1.00
6443;DHT22;3254;47.372;8.512;2023-04-08T12:46:42;15.10;1.00
6443;DHT22;3254;47.372;8.512;2023-04-08T12:49:08;15.30;1.00
6443;DHT22;3254;47.372;8.512;2023-04-08T12:51:44;15.40;1.00
6443;DHT22;3254;47.372;8.512;2023-04-08T12:54:10;15.10;1.00
6443;DHT22;3254;47.372;8.512;2023-04-08T12:56:35;14.90;1.00
6443;DHT22;3254;47.372;8.512;2023-04-08T12:59:01;14.60;1.00
6443;DHT22;3254;47.372;8.512;2023-04-08T13:01:26;14.30;1.00
6443;DHT22;3254;47.372;8.512;2023-04-08T13:03:52;13.90;1.00
6443;DHT22;3254;47.372;8.512;2023-04-08T13:06:18;13.70;1.00
6443;DHT22;3254;47.372;8.512;2023-04-08T13:08:44;13.50;1.00
6443;DHT22;3254;47.372;8.512;2023-04-08T13:11:10;13.40;1.00
6443;DHT22;3254;47.372;8.512;2023-04-08T13:13:36;13.30;1.00
6443;DHT22;3254;47.372;8.512;2023-04-08T13:16:03;13.40;1.00
6443;DHT22;3254;47.372;8.512;2023-04-08T13:18:28;13.70;1.00
6443;DHT22;3254;47.372;8.512;2023-04-08T13:20:54;13.80;1.00
6443;DHT22;3254;47.372;8.512;2023-04-08T13:23:20;13.70;1.00
6443;DHT22;3254;47.372;8.512;2023-04-08T13:25:46;13.70;1.00
6443;DHT22;3254;47.372;8.512;2023-04-08T13:28:12;13.80;1.00
6443;DHT22;3254;47.372;8.512;2023-04-08T13:30:38;14.00;1.00
6443;DHT22;3254;47.372;8.512;2023-04-08T13:33:03;14.10;1.00
6443;DHT22;3254;47.372;8.512;2023-04-08T13:35:29;14.20;1.00
6443;DHT22;3254;47.372;8.512;2023-04-08T13:37:54;14.20;1.00
6443;DHT22;3254;47.372;8.512;2023-04-08T13:40:20;14.20;1.00
6443;DHT22;3254;47.372;8.512;2023-04-08T13:42:46;14.20;1.00
6443;DHT22;3254;47.372;8.512;2023-04-08T13:45:12;14.30;1.00
6443;DHT22;3254;47.372;8.512;2023-04-08T13:47:41;14.60;1.00
6443;DHT22;3254;47.372;8.512;2023-04-08T13:50:10;14.40;1.00
6443;DHT22;3254;47.372;8.512;2023-04-08T13:52:36;14.20;1.00
6443;DHT22;3254;47.372;8.512;2023-04-08T13:55:02;13.90;1.00
6443;DHT22;3254;47.372;8.512;2023-04-08T13:57:27;14.00;1.00
6443;DHT22;3254;47.372;8.512;2023-04-08T13:59:53;13.80;1.00
6443;DHT22;3254;47.372;8.512;2023-04-08T14:02:19;13.50;1.00
6443;DHT22;3254;47.372;8.512;2023-04-08T14:04:44;13.40;1.00
6443;DHT22;3254;47.372;8.512;2023-04-08T14:07:12;13.40;1.00
6443;DHT22;3254;47.372;8.512;2023-04-08T14:09:37;13.30;1.00
6443;DHT22;3254;47.372;8.512;2023-04-08T14:12:03;13.40;1.00
6443;DHT22;3254;47.372;8.512;2023-04-08T14:14:29;13.50;1.00
6443;DHT22;3254;47.372;8.512;2023-04-08T14:16:57;13.40;1.00
6443;DHT22;3254;47.372;8.512;2023-04-08T14:19:22;13.30;1.00
6443;DHT22;3254;47.372;8.512;2023-04-08T14:21:49;13.20;1.00
6443;DHT22;3254;47.372;8.512;2023-04-08T14:24:15;13.30;1.00
6443;DHT22;3254;47.372;8.512;2023-04-08T14:26:41;13.40;1.00
6443;DHT22;3254;47.372;8.512;2023-04-08T14:29:07;13.50;1.00
6443;DHT22;3254;47.372;8.512;2023-04-08T14:31:33;13.60;1.00
6443;DHT22;3254;47.372;8.512;2023-04-08T14:33:59;13.60;1.00
6443;DHT22;3254;47.372;8.512;2023-04-08T14:36:26;13.70;1.00
6443;DHT22;3254;47.372;8.512;2023-04-08T14:38:53;13.80;1.00
6443;DHT22;3254;47.372;8.512;2023-04-08T14:41:18;13.80;1.00
6443;DHT22;3254;47.372;8.512;2023-04-08T14:43:44;13.70;1.00
6443;DHT22;3254;47.372;8.512;2023-04-08T14:46:09;13.60;1.00
6443;DHT22;3254;47.372;8.512;2023-04-08T14:48:35;13.50;1.00
6443;DHT22;3254;47.372;8.512;2023-04-08T14:51:01;13.40;1.00
6443;DHT22;3254;47.372;8.512;2023-04-08T14:53:26;13.70;1.00
6443;DHT22;3254;47.372;8.512;2023-04-08T14:55:52;13.80;1.00
6443;DHT22;3254;47.372;8.512;2023-04-08T14:58:19;14.00;1.00
6443;DHT22;3254;47.372;8.512;2023-04-08T15:00:45;14.20;1.00
6443;DHT22;3254;47.372;8.512;2023-04-08T15:03:13;14.20;1.00
6443;DHT22;3254;47.372;8.512;2023-04-08T15:05:39;14.20;1.00
6443;DHT22;3254;47.372;8.512;2023-04-08T15:08:05;14.30;1.00
6443;DHT22;3254;47.372;8.512;2023-04-08T15:10:33;14.70;1.00
6443;DHT22;3254;47.372;8.512;2023-04-08T15:13:00;14.60;1.00
6443;DHT22;3254;47.372;8.512;2023-04-08T15:15:26;14.60;1.00
6443;DHT22;3254;47.372;8.512;2023-04-08T15:17:52;14.60;1.00
6443;DHT22;3254;47.372;8.512;2023-04-08T15:20:17;14.70;1.00
6443;DHT22;3254;47.372;8.512;2023-04-08T15:22:44;15.00;1.00
6443;DHT22;3254;47.372;8.512;2023-04-08T15:25:11;15.20;1.00
6443;DHT22;3254;47.372;8.512;2023-04-08T15:27:37;15.20;1.00
6443;DHT22;3254;47.372;8.512;2023-04-08T15:30:06;14.90;1.00
6443;DHT22;3254;47.372;8.512;2023-04-08T15:32:32;14.70;1.00
6443;DHT22;3254;47.372;8.512;2023-04-08T15:34:58;14.30;1.00
6443;DHT22;3254;47.372;8.512;2023-04-08T15:37:25;14.20;1.00
6443;DHT22;3254;47.372;8.512;2023-04-08T15:39:51;14.10;1.00
6443;DHT22;3254;47.372;8.512;2023-04-08T15:42:21;14.20;1.00
6443;DHT22;3254;47.372;8.512;2023-04-08T15:44:48;14.20;1.00
6443;DHT22;3254;47.372;8.512;2023-04-08T15:47:13;14.30;1.00
6443;DHT22;3254;47.372;8.512;2023-04-08T15:49:39;14.30;1.00
6443;DHT22;3254;47.372;8.512;2023-04-08T15:52:05;14.30;1.00
6443;DHT22;3254;47.372;8.512;2023-04-08T15:54:34;14.50;1.00
6443;DHT22;3254;47.372;8.512;2023-04-08T15:57:00;14.40;1.00
6443;DHT22;3254;47.372;8.512;2023-04-08T15:59:30;14.20;1.00
6443;DHT22;3254;47.372;8.512;2023-04-08T16:01:55;14.10;1.00
6443;DHT22;3254;47.372;8.512;2023-04-08T16:04:21;13.90;1.00
6443;DHT22;3254;47.372;8.512;2023-04-08T16:06:47;13.80;1.00
6443;DHT22;3254;47.372;8.512;2023-04-08T16:09:14;13.70;1.00
6443;DHT22;3254;47.372;8.512;2023-04-08T16:11:42;13.50;1.00
6443;DHT22;3254;47.372;8.512;2023-04-08T16:14:09;13.50;1.00
6443;DHT22;3254;47.372;8.512;2023-04-08T16:16:35;13.50;1.00
6443;DHT22;3254;47.372;8.512;2023-04-08T16:19:03;13.50;1.00
6443;DHT22;3254;47.372;8.512;2023-04-08T16:21:28;13.70;1.00
6443;DHT22;3254;47.372;8.512;2023-04-08T16:23:55;13.60;1.00
6443;DHT22;3254;47.372;8.512;2023-04-08T16:26:21;13.70;1.00
6443;DHT22;3254;47.372;8.512;2023-04-08T16:28:48;13.50;1.00
6443;DHT22;3254;47.372;8.512;2023-04-08T16:31:14;13.50;1.00
6443;DHT22;3254;47.372;8.512;2023-04-08T16:33:40;13.50;1.00
6443;DHT22;3254;47.372;8.512;2023-04-08T16:36:06;13.40;1.00
6443;DHT22;3254;47.372;8.512;2023-04-08T16:38:31;13.30;1.00
6443;DHT22;3254;47.372;8.512;2023-04-08T16:40:57;13.10;1.00
6443;DHT22;3254;47.372;8.512;2023-04-08T16:43:23;13.10;1.00
6443;DHT22;3254;47.372;8.512;2023-04-08T16:45:50;12.80;1.00
6443;DHT22;3254;47.372;8.512;2023-04-08T16:48:15;12.60;1.00